Time;durP1;ratioP1;P1;durP2;ratioP2;P2;SDS_P1;SDS_P2;PMS_P1;PMS_P2;Temp;Humidity;BMP_temperature;BMP_pressure;BME280_temperature;BME280_humidity;BME280_pressure;Samples;Min_cycle;Max_cycle;Signal;HPM_P1;HPM_P2
2022/03/06 00:01:59;;;;;;;13.80;8.93;;;1.20;99.90;;;;;;5061044;28;20044;-67
2022/03/06 00:04:24;;;;;;;12.95;9.02;;;1.20;99.90;;;;;;5071223;28;20044;-68
2022/03/06 00:06:50;;;;;;;12.32;8.73;;;1.30;99.90;;;;;;5053026;28;20048;-67
2022/03/06 00:09:16;;;;;;;12.98;10.05;;;1.30;99.90;;;;;;5052298;28;20495;-67
2022/03/06 00:11:41;;;;;;;12.35;9.60;;;1.20;99.90;;;;;;5053068;28;20051;-67
2022/03/06 00:14:07;;;;;;;13.15;9.85;;;1.30;99.90;;;;;;5070583;28;20052;-67
2022/03/06 00:16:33;;;;;;;10.43;8.75;;;1.40;99.90;;;;;;5073885;28;20083;-67
2022/03/06 00:18:58;;;;;;;11.10;9.30;;;1.30;99.90;;;;;;5062408;28;20622;-67
2022/03/06 00:21:24;;;;;;;12.00;9.60;;;1.20;99.90;;;;;;5089599;28;20054;-67
2022/03/06 00:23:49;;;;;;;12.50;10.07;;;1.30;99.90;;;;;;5052299;28;20044;-67
2022/03/06 00:26:15;;;;;;;11.18;9.38;;;1.30;99.90;;;;;;5052565;28;20052;-67
2022/03/06 00:28:41;;;;;;;12.45;9.70;;;1.30;99.90;;;;;;5052369;28;20064;-67
2022/03/06 00:31:06;;;;;;;11.75;8.77;;;1.30;99.90;;;;;;5053860;28;20384;-67
2022/03/06 00:33:32;;;;;;;11.07;8.93;;;1.50;99.90;;;;;;5052782;28;20483;-67
2022/03/06 00:35:57;;;;;;;14.73;9.45;;;1.40;99.90;;;;;;5052518;28;20174;-67
2022/03/06 00:38:23;;;;;;;10.15;8.63;;;1.30;99.90;;;;;;5075107;28;20082;-67
2022/03/06 00:40:49;;;;;;;10.88;8.50;;;1.50;99.90;;;;;;5057457;28;20029;-67
2022/03/06 00:43:16;;;;;;;11.43;8.80;;;1.30;99.90;;;;;;5051462;28;20114;-67
2022/03/06 00:45:42;;;;;;;12.18;9.27;;;1.40;99.90;;;;;;5052400;28;20044;-67
2022/03/06 00:48:08;;;;;;;10.65;8.35;;;1.40;99.90;;;;;;5070080;28;20056;-67
2022/03/06 00:50:37;;;;;;;14.10;9.77;;;1.30;99.90;;;;;;5070383;28;20044;-67
2022/03/06 00:53:03;;;;;;;13.25;9.30;;;1.40;99.90;;;;;;5052395;28;20094;-67
2022/03/06 00:55:30;;;;;;;11.50;8.43;;;1.40;99.90;;;;;;5052493;28;20048;-67
2022/03/06 00:57:56;;;;;;;13.38;8.95;;;1.60;99.90;;;;;;5051125;28;20487;-67
2022/03/06 01:00:22;;;;;;;11.10;8.73;;;1.30;99.90;;;;;;5054215;28;20105;-67
2022/03/06 01:02:48;;;;;;;12.98;7.78;;;1.40;99.90;;;;;;5056127;28;20127;-67
2022/03/06 01:05:14;;;;;;;10.77;8.55;;;1.30;99.90;;;;;;5055726;28;20059;-67
2022/03/06 01:07:40;;;;;;;13.07;8.77;;;1.50;99.90;;;;;;5074528;28;20139;-67
2022/03/06 01:10:06;;;;;;;12.70;8.63;;;1.30;99.90;;;;;;5073766;28;20048;-67
2022/03/06 01:12:32;;;;;;;11.18;8.18;;;1.30;99.90;;;;;;5069841;28;20139;-67
2022/03/06 01:14:58;;;;;;;9.93;6.78;;;1.30;99.90;;;;;;5080433;28;20558;-66
2022/03/06 01:17:30;;;;;;;9.77;7.53;;;1.30;99.90;;;;;;5071782;28;20052;-66
2022/03/06 01:19:56;;;;;;;10.40;7.93;;;1.30;99.90;;;;;;5073632;28;20056;-67
2022/03/06 01:22:21;;;;;;;11.23;7.55;;;1.30;99.90;;;;;;5055946;28;20185;-66
2022/03/06 01:24:47;;;;;;;13.45;8.00;;;1.30;99.90;;;;;;5073888;28;20131;-67
2022/03/06 01:27:12;;;;;;;10.35;7.22;;;1.30;99.90;;;;;;5054833;28;20044;-67
2022/03/06 01:29:38;;;;;;;10.82;7.35;;;1.30;99.90;;;;;;5056001;28;20096;-67
2022/03/06 01:32:04;;;;;;;10.88;6.47;;;1.30;99.90;;;;;;5073294;28;20123;-67
2022/03/06 01:34:29;;;;;;;12.93;6.90;;;1.30;99.90;;;;;;5073746;28;20478;-67
2022/03/06 01:36:55;;;;;;;8.02;6.43;;;1.30;99.90;;;;;;5055569;28;20284;-67
2022/03/06 01:39:20;;;;;;;13.05;7.13;;;1.30;99.90;;;;;;5055240;28;20048;-67
2022/03/06 01:41:46;;;;;;;8.57;6.35;;;1.30;99.90;;;;;;5055880;28;20058;-67
2022/03/06 01:44:13;;;;;;;8.10;6.28;;;1.30;99.90;;;;;;5073299;28;20063;-67
2022/03/06 01:46:40;;;;;;;9.85;5.88;;;1.30;99.90;;;;;;5055786;28;20055;-67
2022/03/06 01:49:05;;;;;;;8.82;5.43;;;1.40;99.90;;;;;;5079628;28;20403;-67
2022/03/06 01:51:31;;;;;;;11.80;5.95;;;1.40;99.90;;;;;;5057212;28;20044;-67
2022/03/06 01:53:56;;;;;;;9.27;4.85;;;1.40;99.90;;;;;;5075350;28;20055;-67
2022/03/06 01:56:22;;;;;;;8.38;5.03;;;1.50;99.90;;;;;;5072174;28;20049;-67
2022/03/06 01:58:48;;;;;;;9.15;5.15;;;1.50;99.90;;;;;;5055443;28;20036;-67
2022/03/06 02:01:14;;;;;;;9.63;5.28;;;1.50;99.90;;;;;;5054451;28;20051;-67
2022/03/06 02:03:39;;;;;;;6.82;5.55;;;1.50;99.90;;;;;;5073514;28;20048;-67
2022/03/06 02:06:08;;;;;;;6.65;5.45;;;1.50;99.90;;;;;;5054864;28;20122;-67
2022/03/06 02:08:34;;;;;;;8.50;6.05;;;1.50;99.90;;;;;;5072875;28;20494;-67
2022/03/06 02:11:00;;;;;;;9.23;5.75;;;1.50;99.90;;;;;;5054664;28;20048;-67
2022/03/06 02:13:26;;;;;;;7.63;5.40;;;1.50;99.90;;;;;;5054813;28;20479;-67
2022/03/06 02:15:53;;;;;;;6.75;4.80;;;1.50;99.90;;;;;;5055041;28;20101;-67
2022/03/06 02:18:19;;;;;;;6.90;4.50;;;1.50;99.90;;;;;;5073152;28;20048;-67
2022/03/06 02:20:47;;;;;;;5.85;4.75;;;1.50;99.90;;;;;;5054828;28;20072;-67
2022/03/06 02:23:13;;;;;;;9.80;4.85;;;1.50;99.90;;;;;;5053578;28;20048;-67
2022/03/06 02:25:39;;;;;;;6.65;4.20;;;1.50;99.90;;;;;;5072227;28;20502;-67
2022/03/06 02:28:07;;;;;;;8.68;4.72;;;1.50;99.90;;;;;;5053927;28;20061;-67
2022/03/06 02:30:36;;;;;;;6.65;3.90;;;1.50;99.90;;;;;;5054124;28;20067;-67
2022/03/06 02:33:05;;;;;;;6.22;3.70;;;1.60;99.90;;;;;;5071327;28;20082;-67
2022/03/06 02:35:31;;;;;;;7.03;4.22;;;1.60;99.90;;;;;;5054992;28;20091;-67
2022/03/06 02:37:57;;;;;;;5.95;3.53;;;1.60;99.90;;;;;;5072188;28;20857;-67
2022/03/06 02:40:29;;;;;;;8.57;4.18;;;1.60;99.90;;;;;;5072220;28;20116;-67
2022/03/06 02:42:55;;;;;;;7.40;4.07;;;1.60;99.90;;;;;;5054104;28;20479;-67
2022/03/06 02:45:23;;;;;;;6.00;3.78;;;1.60;99.90;;;;;;5054243;28;20054;-67
2022/03/06 02:47:51;;;;;;;7.20;3.95;;;1.60;99.90;;;;;;5054654;28;20074;-66
2022/03/06 02:50:21;;;;;;;7.32;4.78;;;1.70;99.90;;;;;;5059939;28;20076;-67
2022/03/06 02:52:47;;;;;;;9.30;4.30;;;1.70;99.90;;;;;;5084634;28;20097;-66
2022/03/06 02:55:14;;;;;;;5.70;3.78;;;1.70;99.90;;;;;;5072012;28;20048;-66
2022/03/06 02:57:40;;;;;;;7.65;4.07;;;1.70;99.90;;;;;;5068211;28;20047;-66
2022/03/06 03:00:10;;;;;;;9.52;4.47;;;1.70;99.90;;;;;;5074249;28;20055;-66
2022/03/06 03:02:37;;;;;;;6.18;4.35;;;1.70;99.90;;;;;;5074198;28;20058;-66
2022/03/06 03:05:04;;;;;;;7.82;4.43;;;1.70;99.90;;;;;;5073676;28;20097;-66
2022/03/06 03:07:29;;;;;;;5.70;4.35;;;3.60;99.90;;;;;;5073977;28;20090;-66
2022/03/06 03:09:55;;;;;;;5.55;3.92;;;1.70;99.90;;;;;;5073730;28;20475;-66
2022/03/06 03:12:21;;;;;;;7.70;4.55;;;1.70;99.90;;;;;;5091741;28;20398;-66
2022/03/06 03:14:46;;;;;;;8.35;4.25;;;1.80;99.90;;;;;;5063512;28;20070;-66
2022/03/06 03:17:12;;;;;;;6.50;4.53;;;1.80;99.90;;;;;;5068308;28;20604;-66
2022/03/06 03:19:37;;;;;;;7.88;4.10;;;1.80;99.90;;;;;;5080212;28;20067;-66
2022/03/06 03:22:03;;;;;;;8.82;5.22;;;1.70;99.90;;;;;;5070141;28;20113;-66
2022/03/06 03:24:29;;;;;;;8.18;4.50;;;1.70;99.90;;;;;;5053557;28;20095;-66
2022/03/06 03:26:55;;;;;;;5.53;4.75;;;1.70;99.90;;;;;;5053357;28;20625;-66
2022/03/06 03:29:20;;;;;;;9.45;4.80;;;1.70;99.90;;;;;;5053313;28;20071;-66
2022/03/06 03:31:46;;;;;;;6.63;4.30;;;1.70;99.90;;;;;;5071846;28;20044;-66
2022/03/06 03:34:12;;;;;;;7.22;4.50;;;1.70;99.90;;;;;;5052891;28;20514;-66
2022/03/06 03:36:38;;;;;;;6.10;4.78;;;1.70;99.90;;;;;;5071398;28;20493;-66
2022/03/06 03:39:04;;;;;;;8.48;4.60;;;1.70;99.90;;;;;;5052778;28;20083;-66
2022/03/06 03:41:30;;;;;;;8.20;4.90;;;1.60;99.90;;;;;;5071557;28;20402;-65
2022/03/06 03:43:55;;;;;;;6.13;4.70;;;1.60;99.90;;;;;;5052986;28;20051;-66
2022/03/06 03:46:21;;;;;;;7.97;4.85;;;1.50;99.90;;;;;;5052658;28;20455;-66
2022/03/06 03:48:47;;;;;;;5.38;4.78;;;1.50;99.90;;;;;;5053606;28;20051;-65
2022/03/06 03:51:12;;;;;;;6.55;4.68;;;1.50;99.90;;;;;;5053093;28;20048;-65
2022/03/06 03:53:38;;;;;;;9.02;5.00;;;1.50;99.90;;;;;;5070811;28;20132;-66
2022/03/06 03:56:07;;;;;;;6.65;4.88;;;1.40;99.90;;;;;;5071220;28;20075;-66
2022/03/06 03:58:34;;;;;;;9.02;4.65;;;1.40;99.90;;;;;;5053170;28;20075;-66
2022/03/06 04:01:00;;;;;;;7.55;5.50;;;1.40;99.90;;;;;;5070712;28;20506;-66
2022/03/06 04:03:26;;;;;;;6.43;4.43;;;1.40;99.90;;;;;;5071129;28;20080;-66
2022/03/06 04:05:53;;;;;;;6.75;3.90;;;1.30;99.90;;;;;;5053303;28;20572;-66
2022/03/06 04:08:18;;;;;;;8.90;4.63;;;1.30;99.90;;;;;;5052516;28;20490;-66
2022/03/06 04:10:47;;;;;;;4.80;4.00;;;1.20;99.90;;;;;;5053049;28;20051;-66
2022/03/06 04:13:12;;;;;;;6.13;4.15;;;1.20;99.90;;;;;;5070739;28;20044;-66
2022/03/06 04:15:38;;;;;;;5.28;3.70;;;1.20;99.90;;;;;;5052530;28;20394;-66
2022/03/06 04:18:04;;;;;;;5.47;4.22;;;1.30;99.90;;;;;;5070879;28;20491;-66
2022/03/06 04:20:30;;;;;;;7.65;4.75;;;1.00;99.90;;;;;;5071021;28;20053;-66
2022/03/06 04:22:57;;;;;;;7.28;5.75;;;1.00;99.90;;;;;;5052581;28;20056;-66
2022/03/06 04:25:23;;;;;;;5.75;4.85;;;1.00;99.90;;;;;;5052463;28;20061;-66
2022/03/06 04:27:49;;;;;;;8.82;5.70;;;0.90;99.90;;;;;;5052795;28;20102;-66
2022/03/06 04:30:15;;;;;;;6.22;5.05;;;0.80;99.90;;;;;;5070123;28;20048;-66
2022/03/06 04:32:43;;;;;;;8.07;5.35;;;0.80;99.90;;;;;;5052572;28;20120;-66
2022/03/06 04:35:09;;;;;;;7.70;4.55;;;0.70;99.90;;;;;;5051728;28;20147;-66
2022/03/06 04:37:35;;;;;;;7.97;4.65;;;0.70;99.90;;;;;;5070567;28;20048;-66
2022/03/06 04:40:00;;;;;;;6.05;4.00;;;0.60;99.90;;;;;;5052423;28;20055;-66
2022/03/06 04:42:29;;;;;;;7.40;4.45;;;0.60;99.90;;;;;;5052151;28;20052;-66
2022/03/06 04:44:55;;;;;;;5.25;3.97;;;0.60;99.90;;;;;;5052419;28;20066;-66
2022/03/06 04:47:20;;;;;;;7.20;4.18;;;0.50;99.90;;;;;;5052418;28;20044;-66
2022/03/06 04:49:46;;;;;;;6.32;3.95;;;0.50;99.90;;;;;;5070144;28;20087;-66
2022/03/06 04:52:11;;;;;;;11.00;6.20;;;0.50;99.90;;;;;;5052749;28;20189;-66
2022/03/06 04:54:37;;;;;;;6.85;4.05;;;0.40;99.90;;;;;;5052385;28;20406;-66
2022/03/06 04:57:06;;;;;;;5.82;3.95;;;0.40;99.90;;;;;;5051886;28;20084;-66
2022/03/06 04:59:31;;;;;;;8.05;4.13;;;0.40;99.90;;;;;;5052877;28;20045;-66
2022/03/06 05:01:57;;;;;;;7.00;4.45;;;0.50;99.90;;;;;;5052472;28;20494;-66
2022/03/06 05:04:22;;;;;;;5.68;3.60;;;0.40;99.90;;;;;;5051697;28;20083;-66
2022/03/06 05:06:48;;;;;;;7.40;4.00;;;0.40;99.90;;;;;;5057014;28;20048;-66
2022/03/06 05:09:13;;;;;;;5.22;3.60;;;0.30;99.90;;;;;;5068710;28;20136;-66
2022/03/06 05:11:39;;;;;;;4.55;3.08;;;0.30;99.90;;;;;;5066515;28;20066;-66
2022/03/06 05:14:05;;;;;;;8.85;4.32;;;0.30;99.90;;;;;;5068449;28;20045;-66
2022/03/06 05:16:31;;;;;;;7.10;3.92;;;0.20;99.90;;;;;;5051944;28;20051;-66
2022/03/06 05:18:57;;;;;;;6.00;3.25;;;0.20;99.90;;;;;;5069906;28;20048;-66
2022/03/06 05:21:23;;;;;;;7.97;3.83;;;0.20;99.90;;;;;;5069903;28;20140;-66
2022/03/06 05:23:48;;;;;;;6.20;3.55;;;0.10;99.90;;;;;;5052524;28;20376;-66
2022/03/06 05:26:14;;;;;;;4.82;3.58;;;0.20;99.90;;;;;;5051358;28;20063;-66
2022/03/06 05:28:43;;;;;;;5.22;3.42;;;0.10;99.90;;;;;;5051775;28;20361;-66
2022/03/06 05:31:09;;;;;;;5.10;3.70;;;0.10;99.90;;;;;;5070054;28;20410;-66
2022/03/06 05:33:35;;;;;;;6.90;4.07;;;0.10;99.90;;;;;;5051784;28;20041;-66
2022/03/06 05:36:01;;;;;;;6.45;4.15;;;0.10;99.90;;;;;;5057504;28;20044;-66
2022/03/06 05:38:27;;;;;;;5.53;3.75;;;0.00;99.90;;;;;;5059703;28;20045;-66
2022/03/06 05:40:53;;;;;;;5.57;3.80;;;0.00;99.90;;;;;;5050999;28;20053;-66
2022/03/06 05:43:18;;;;;;;6.10;3.45;;;0.00;99.90;;;;;;5051590;28;20364;-66
2022/03/06 05:45:45;;;;;;;8.63;4.65;;;-0.10;99.90;;;;;;5069729;28;20376;-66
2022/03/06 05:48:11;;;;;;;6.05;3.67;;;-0.10;99.90;;;;;;5072778;28;20050;-66
2022/03/06 05:50:36;;;;;;;7.07;4.50;;;-0.30;99.90;;;;;;5055031;28;20127;-66
2022/03/06 05:53:02;;;;;;;5.88;4.20;;;-0.10;99.90;;;;;;5054881;28;20440;-66
2022/03/06 05:55:30;;;;;;;9.43;4.20;;;-0.10;99.90;;;;;;5055577;28;20427;-66
2022/03/06 05:57:56;;;;;;;5.70;3.50;;;-0.10;99.90;;;;;;5059255;28;20093;-66
2022/03/06 06:00:24;;;;;;;4.15;3.05;;;0.20;99.90;;;;;;5071478;28;20071;-67
2022/03/06 06:02:50;;;;;;;5.65;3.45;;;-0.10;99.90;;;;;;5059979;28;20076;-66
2022/03/06 06:05:15;;;;;;;7.68;3.65;;;0.20;99.90;;;;;;5072810;28;20091;-66
2022/03/06 06:07:41;;;;;;;4.82;3.10;;;0.00;99.90;;;;;;5081943;28;20449;-66
2022/03/06 06:10:08;;;;;;;7.50;3.08;;;0.00;99.90;;;;;;5072986;28;20543;-66
2022/03/06 06:12:33;;;;;;;4.78;2.90;;;0.00;99.90;;;;;;5079257;28;20046;-66
2022/03/06 06:14:59;;;;;;;5.30;2.90;;;0.10;99.90;;;;;;5071197;28;20127;-66
2022/03/06 06:17:24;;;;;;;4.60;2.88;;;0.10;99.90;;;;;;5072512;28;20041;-66
2022/03/06 06:19:50;;;;;;;3.80;2.40;;;0.10;99.90;;;;;;5072984;28;20048;-66
2022/03/06 06:22:16;;;;;;;7.15;3.13;;;0.20;99.90;;;;;;5054395;28;20053;-66
2022/03/06 06:24:41;;;;;;;4.45;2.47;;;0.20;99.90;;;;;;5054445;28;20044;-66
2022/03/06 06:27:07;;;;;;;5.45;2.10;;;0.30;99.90;;;;;;5072654;28;20505;-66
2022/03/06 06:29:33;;;;;;;3.00;2.47;;;0.40;99.90;;;;;;5054329;28;20106;-66
2022/03/06 06:31:59;;;;;;;3.42;2.08;;;0.50;99.90;;;;;;5054529;28;20475;-67
2022/03/06 06:34:24;;;;;;;2.40;2.20;;;0.50;99.90;;;;;;5054087;28;20060;-66
2022/03/06 06:36:50;;;;;;;2.40;2.20;;;0.60;99.90;;;;;;5053947;28;20052;-66
2022/03/06 06:39:19;;;;;;;3.30;1.90;;;0.60;99.90;;;;;;5072324;28;20045;-67
2022/03/06 06:41:45;;;;;;;2.65;1.83;;;0.60;99.90;;;;;;5054422;28;20044;-66
2022/03/06 06:44:10;;;;;;;3.33;1.88;;;0.70;99.90;;;;;;5056367;28;20146;-66
2022/03/06 06:46:36;;;;;;;2.45;1.83;;;0.70;99.90;;;;;;5070966;28;20087;-67
2022/03/06 06:49:03;;;;;;;3.58;1.50;;;0.80;99.90;;;;;;5080767;28;20055;-66
2022/03/06 06:51:29;;;;;;;1.83;1.33;;;0.90;99.90;;;;;;5054253;28;20048;-66
2022/03/06 06:53:55;;;;;;;2.70;1.45;;;0.80;99.90;;;;;;5070792;28;20043;-66
2022/03/06 06:56:21;;;;;;;1.50;1.40;;;0.80;99.90;;;;;;5086272;28;20059;-66
2022/03/06 06:58:46;;;;;;;3.50;2.03;;;0.90;99.90;;;;;;5053279;28;20052;-66
2022/03/06 07:01:12;;;;;;;4.75;2.75;;;1.10;99.90;;;;;;5064628;28;20059;-66
2022/03/06 07:03:37;;;;;;;2.88;2.05;;;1.00;99.90;;;;;;5071568;28;20050;-66
2022/03/06 07:06:03;;;;;;;2.10;1.65;;;1.00;99.90;;;;;;5053761;28;20045;-66
2022/03/06 07:08:29;;;;;;;1.40;1.25;;;1.00;99.90;;;;;;5053835;28;20044;-66
2022/03/06 07:10:54;;;;;;;2.65;1.40;;;1.10;99.90;;;;;;5054248;28;20074;-66
2022/03/06 07:13:20;;;;;;;3.40;1.80;;;1.10;99.90;;;;;;5061351;28;20242;-66
2022/03/06 07:15:45;;;;;;;1.75;1.65;;;1.10;99.90;;;;;;5065130;28;20495;-66
2022/03/06 07:18:11;;;;;;;2.50;1.17;;;1.20;99.90;;;;;;5071454;28;20086;-67
2022/03/06 07:20:37;;;;;;;4.72;1.60;;;1.20;99.90;;;;;;5053822;28;20091;-67
2022/03/06 07:23:02;;;;;;;3.05;1.60;;;1.20;99.90;;;;;;5053352;28;20114;-66
2022/03/06 07:25:28;;;;;;;3.88;1.38;;;1.30;99.90;;;;;;5071426;28;20127;-67
2022/03/06 07:27:54;;;;;;;2.92;1.58;;;1.30;99.90;;;;;;5053354;28;20484;-66
2022/03/06 07:30:21;;;;;;;2.53;1.60;;;1.50;99.90;;;;;;5053596;28;20114;-66
2022/03/06 07:32:48;;;;;;;2.28;1.52;;;1.50;99.90;;;;;;5071408;28;20419;-67
2022/03/06 07:35:15;;;;;;;2.90;1.50;;;1.50;99.90;;;;;;5052864;28;20097;-67
2022/03/06 07:37:41;;;;;;;1.80;1.30;;;1.60;99.90;;;;;;5053708;28;20041;-66
2022/03/06 07:40:08;;;;;;;4.05;1.55;;;1.90;99.90;;;;;;5052300;28;20052;-67
2022/03/06 07:42:34;;;;;;;5.35;2.10;;;1.80;99.90;;;;;;5071420;28;20048;-66
2022/03/06 07:45:00;;;;;;;4.30;1.73;;;1.80;99.90;;;;;;5053430;28;20083;-66
2022/03/06 07:47:26;;;;;;;2.35;1.70;;;1.90;99.90;;;;;;5053323;28;20045;-66
2022/03/06 07:49:51;;;;;;;7.70;2.13;;;2.00;99.90;;;;;;5064062;28;20055;-67
2022/03/06 07:52:17;;;;;;;3.15;1.48;;;2.10;99.90;;;;;;5059470;28;20410;-67
2022/03/06 07:54:42;;;;;;;2.55;1.17;;;2.10;99.90;;;;;;5091697;28;20127;-66
2022/03/06 07:57:08;;;;;;;2.65;1.48;;;2.20;99.90;;;;;;5091127;28;20402;-67
2022/03/06 07:59:35;;;;;;;2.33;1.50;;;2.20;99.90;;;;;;5069576;28;20428;-66
2022/03/06 08:02:01;;;;;;;3.55;1.75;;;2.30;99.90;;;;;;5056582;28;20048;-67
2022/03/06 08:04:27;;;;;;;2.95;1.23;;;2.30;99.90;;;;;;5067792;28;20048;-67
2022/03/06 08:06:53;;;;;;;1.92;1.65;;;2.40;99.90;;;;;;5060312;28;20056;-66
2022/03/06 08:09:19;;;;;;;3.17;1.60;;;2.50;99.90;;;;;;5072523;28;20479;-66
2022/03/06 08:11:44;;;;;;;3.85;1.70;;;2.50;99.90;;;;;;5071799;28;20052;-66
2022/03/06 08:14:10;;;;;;;2.22;1.95;;;2.50;99.90;;;;;;5054615;28;20614;-67
2022/03/06 08:16:36;;;;;;;4.03;1.65;;;2.60;99.90;;;;;;5073122;28;20044;-67
2022/03/06 08:19:02;;;;;;;2.50;2.00;;;2.60;99.90;;;;;;5072289;28;20044;-67
2022/03/06 08:21:28;;;;;;;2.22;1.55;;;2.60;99.90;;;;;;5075209;28;20142;-67
2022/03/06 08:23:53;;;;;;;2.22;1.30;;;2.70;99.90;;;;;;5061581;28;20068;-69
2022/03/06 08:26:19;;;;;;;3.58;1.58;;;2.70;99.90;;;;;;5060637;28;20436;-67
2022/03/06 08:28:44;;;;;;;2.28;1.63;;;2.80;99.90;;;;;;5054766;28;20070;-67
2022/03/06 08:31:10;;;;;;;2.45;1.63;;;2.80;99.90;;;;;;5070555;28;20068;-69
2022/03/06 08:33:39;;;;;;;2.15;1.48;;;2.80;99.90;;;;;;5056497;28;20308;-71
2022/03/06 08:36:05;;;;;;;3.17;1.73;;;2.60;99.90;;;;;;5048772;28;20445;-72
2022/03/06 08:38:30;;;;;;;2.67;1.48;;;4.00;99.90;;;;;;5063007;28;20037;-72
2022/03/06 08:40:56;;;;;;;4.72;1.80;;;3.00;99.90;;;;;;5070519;28;20052;-72
2022/03/06 08:43:21;;;;;;;2.22;1.75;;;3.00;99.90;;;;;;5051960;28;20135;-72
2022/03/06 08:45:47;;;;;;;1.67;1.58;;;3.10;99.90;;;;;;5052453;28;20090;-71
2022/03/06 08:48:13;;;;;;;1.38;1.27;;;3.10;99.90;;;;;;5058390;28;20044;-71
2022/03/06 08:50:38;;;;;;;2.83;1.90;;;3.20;99.90;;;;;;5051690;28;20050;-72
2022/03/06 08:53:04;;;;;;;2.42;1.60;;;3.30;99.90;;;;;;5056322;28;20060;-73
2022/03/06 08:55:29;;;;;;;1.80;1.30;;;3.30;99.90;;;;;;5071122;28;20048;-73
2022/03/06 08:57:55;;;;;;;2.30;1.60;;;3.40;99.90;;;;;;5069033;28;20049;-72
2022/03/06 09:00:21;;;;;;;2.55;1.83;;;3.50;99.90;;;;;;5055266;28;20491;-75
2022/03/06 09:02:46;;;;;;;1.65;1.20;;;3.50;99.90;;;;;;5054175;28;20932;-70
2022/03/06 09:05:12;;;;;;;3.15;1.55;;;3.60;99.90;;;;;;5061469;28;20050;-70
2022/03/06 09:07:38;;;;;;;5.13;1.80;;;3.70;99.90;;;;;;5052285;28;20052;-70
2022/03/06 09:10:04;;;;;;;1.73;1.63;;;3.80;99.90;;;;;;5051664;28;20075;-69
2022/03/06 09:12:30;;;;;;;2.63;1.80;;;3.90;99.90;;;;;;5051493;28;20048;-68
2022/03/06 09:14:56;;;;;;;5.88;1.52;;;3.90;99.90;;;;;;5051533;28;20090;-69
2022/03/06 09:17:21;;;;;;;2.92;1.92;;;3.90;99.90;;;;;;5051178;28;20056;-68
2022/03/06 09:19:47;;;;;;;3.65;2.08;;;3.90;99.90;;;;;;5051288;28;20061;-68
2022/03/06 09:22:13;;;;;;;2.45;1.60;;;3.90;99.90;;;;;;5064139;28;20079;-68
2022/03/06 09:24:39;;;;;;;2.13;1.45;;;3.90;99.90;;;;;;5071296;28;20490;-68
2022/03/06 09:27:05;;;;;;;4.53;1.63;;;3.90;99.90;;;;;;5073038;28;20049;-68
2022/03/06 09:29:30;;;;;;;3.30;1.90;;;4.00;99.90;;;;;;5055001;28;20135;-68
2022/03/06 09:31:56;;;;;;;2.20;1.73;;;4.00;99.90;;;;;;5072735;28;20170;-68
2022/03/06 09:34:22;;;;;;;2.92;1.90;;;4.10;99.90;;;;;;5062846;28;20049;-71
2022/03/06 09:36:48;;;;;;;2.17;1.77;;;4.10;99.90;;;;;;5066480;28;20055;-67
2022/03/06 09:39:22;;;;;;;2.42;1.63;;;4.10;99.90;;;;;;5071216;28;20098;-67
2022/03/06 09:41:49;;;;;;;4.63;2.15;;;4.10;99.90;;;;;;5055106;28;20052;-67
2022/03/06 09:44:15;;;;;;;2.55;1.33;;;4.20;99.90;;;;;;5056406;28;20073;-67
2022/03/06 09:46:41;;;;;;;2.53;1.70;;;4.20;99.90;;;;;;5066446;28;20221;-67
2022/03/06 09:49:08;;;;;;;3.25;2.13;;;4.20;99.90;;;;;;5084154;28;20838;-67
2022/03/06 09:51:38;;;;;;;2.15;1.83;;;4.20;99.90;;;;;;5064274;28;20518;-67
2022/03/06 09:54:04;;;;;;;5.18;1.80;;;4.20;99.90;;;;;;5059003;28;20491;-67
2022/03/06 09:56:30;;;;;;;6.32;1.85;;;4.30;99.90;;;;;;5074751;28;20554;-67
2022/03/06 09:58:56;;;;;;;6.22;2.35;;;4.30;99.90;;;;;;5074332;28;20047;-67
2022/03/06 10:01:21;;;;;;;3.50;1.67;;;4.30;99.90;;;;;;5071077;28;20181;-67
2022/03/06 10:03:47;;;;;;;4.85;1.80;;;4.20;99.90;;;;;;5080142;28;20380;-67
2022/03/06 10:06:12;;;;;;;3.47;1.85;;;4.50;99.90;;;;;;5082272;28;20098;-67
2022/03/06 10:08:38;;;;;;;2.50;1.60;;;4.60;99.90;;;;;;5069472;28;20036;-67
2022/03/06 10:11:15;;;;;;;2.83;1.80;;;4.60;99.90;;;;;;5059078;28;20723;-67
2022/03/06 10:13:43;;;;;;;1.90;1.60;;;4.70;99.90;;;;;;5073379;28;20131;-67
2022/03/06 10:16:20;;;;;;;2.05;1.70;;;4.80;99.90;;;;;;5073630;28;20056;-67
2022/03/06 10:18:48;;;;;;;3.05;1.70;;;4.80;99.90;;;;;;5064678;28;20053;-67
2022/03/06 10:21:24;;;;;;;4.00;1.67;;;4.80;99.90;;;;;;5061215;28;20038;-69
2022/03/06 10:23:58;;;;;;;2.85;1.85;;;4.80;99.90;;;;;;5087896;28;20052;-66
2022/03/06 10:26:33;;;;;;;2.13;1.77;;;4.90;99.90;;;;;;5056312;28;20047;-67
2022/03/06 10:29:04;;;;;;;4.93;2.22;;;4.90;99.90;;;;;;5084433;28;20063;-66
2022/03/06 10:31:32;;;;;;;1.98;1.70;;;4.90;99.90;;;;;;5064447;28;20059;-66
2022/03/06 10:34:07;;;;;;;3.15;1.88;;;4.90;99.90;;;;;;5052889;28;20040;-66
2022/03/06 10:36:36;;;;;;;3.40;1.85;;;4.90;99.90;;;;;;5054406;28;20056;-66
2022/03/06 10:39:10;;;;;;;4.13;2.20;;;4.80;99.90;;;;;;5071581;28;20570;-66
2022/03/06 10:41:38;;;;;;;2.83;1.83;;;4.80;99.90;;;;;;5053662;28;20131;-66
2022/03/06 10:44:09;;;;;;;2.05;1.75;;;4.80;99.90;;;;;;5053592;28;20060;-67
2022/03/06 10:46:36;;;;;;;2.17;1.67;;;4.80;99.90;;;;;;5062844;28;20063;-66
2022/03/06 10:49:13;;;;;;;3.97;1.50;;;4.80;99.90;;;;;;5061886;28;20222;-66
2022/03/06 10:51:41;;;;;;;3.92;1.80;;;4.80;99.90;;;;;;5054848;28;20137;-68
2022/03/06 10:54:08;;;;;;;3.70;2.13;;;4.90;99.90;;;;;;5059179;28;20510;-68
2022/03/06 10:56:36;;;;;;;4.35;1.95;;;4.90;99.90;;;;;;5064966;28;20037;-68
2022/03/06 10:59:05;;;;;;;5.05;2.38;;;4.90;99.90;;;;;;5077771;28;20052;-68
2022/03/06 11:01:34;;;;;;;2.58;1.80;;;5.10;99.90;;;;;;5053564;28;20102;-68
2022/03/06 11:04:02;;;;;;;4.63;2.55;;;5.10;99.90;;;;;;5071067;28;20512;-68
2022/03/06 11:06:31;;;;;;;2.92;2.30;;;5.20;99.90;;;;;;5077326;28;20483;-68
2022/03/06 11:08:57;;;;;;;4.97;1.60;;;5.30;99.90;;;;;;5069823;28;20044;-68
2022/03/06 11:11:23;;;;;;;4.80;1.98;;;5.40;99.90;;;;;;5052667;28;20098;-68
2022/03/06 11:13:49;;;;;;;3.28;1.73;;;5.40;99.90;;;;;;5073957;28;20178;-68
2022/03/06 11:16:15;;;;;;;3.35;2.20;;;5.50;99.90;;;;;;5061616;28;20066;-67
2022/03/06 11:18:44;;;;;;;3.58;1.90;;;5.50;99.90;;;;;;5058878;28;20062;-68
2022/03/06 11:21:10;;;;;;;3.15;1.98;;;5.60;99.90;;;;;;5054789;28;20028;-68
2022/03/06 11:23:40;;;;;;;3.55;2.30;;;5.40;99.90;;;;;;5067624;28;20181;-68
2022/03/06 11:26:12;;;;;;;4.78;1.95;;;5.40;99.90;;;;;;5058459;28;20062;-69
2022/03/06 11:28:49;;;;;;;2.80;1.80;;;5.50;99.90;;;;;;5050193;28;20065;-68
2022/03/06 11:31:15;;;;;;;3.83;1.75;;;5.60;99.90;;;;;;5036817;28;20053;-68
2022/03/06 11:34:03;;;;;;;2.00;1.52;;;5.60;99.90;;;;;;5051030;28;20040;-68
2022/03/06 11:36:30;;;;;;;3.05;2.10;;;5.60;99.90;;;;;;5053043;28;20059;-68
2022/03/06 11:38:56;;;;;;;4.97;2.38;;;5.60;99.90;;;;;;5047460;28;20376;-69
2022/03/06 11:41:24;;;;;;;3.25;2.13;;;5.70;99.90;;;;;;5050303;28;20071;-68
2022/03/06 11:43:54;;;;;;;1.95;1.73;;;5.70;99.90;;;;;;5070713;28;20048;-69
2022/03/06 11:46:24;;;;;;;2.92;1.90;;;5.60;99.90;;;;;;5042599;28;20080;-68
2022/03/06 11:48:50;;;;;;;2.90;2.17;;;5.60;99.90;;;;;;5036336;28;20074;-68
2022/03/06 11:51:16;;;;;;;8.32;1.98;;;5.60;99.90;;;;;;5040438;28;20072;-67
2022/03/06 11:53:56;;;;;;;3.08;1.80;;;5.50;99.90;;;;;;5056617;28;20499;-67
2022/03/06 11:56:39;;;;;;;3.30;1.73;;;5.50;99.90;;;;;;5031563;28;20396;-67
2022/03/06 11:59:17;;;;;;;2.13;1.67;;;5.40;99.90;;;;;;5062555;28;20518;-67
2022/03/06 12:01:45;;;;;;;2.67;1.80;;;5.40;99.90;;;;;;5048691;28;20053;-67
2022/03/06 12:04:29;;;;;;;2.70;1.60;;;5.40;99.90;;;;;;5048956;28;20055;-67
2022/03/06 12:06:58;;;;;;;4.70;1.52;;;5.50;99.90;;;;;;5050094;28;20052;-67
2022/03/06 12:09:32;;;;;;;4.40;2.20;;;5.60;99.90;;;;;;5032262;28;20484;-67
2022/03/06 12:12:04;;;;;;;2.33;1.80;;;5.60;99.90;;;;;;5032487;28;20053;-67
2022/03/06 12:14:33;;;;;;;7.10;2.00;;;5.50;99.90;;;;;;5032433;28;20407;-67
2022/03/06 12:19:44;;;;;;;3.97;1.70;;;5.50;99.90;;;;;;5032178;28;20110;-68
2022/03/06 12:22:13;;;;;;;5.03;2.10;;;5.50;99.90;;;;;;5042151;28;20567;-68
2022/03/06 12:24:41;;;;;;;2.70;1.30;;;5.50;99.90;;;;;;5042906;28;20068;-67
2022/03/06 12:27:11;;;;;;;4.55;1.70;;;5.50;99.90;;;;;;5045602;28;20048;-67
2022/03/06 12:29:46;;;;;;;4.85;1.50;;;5.50;99.90;;;;;;5072760;28;20060;-67
2022/03/06 12:32:25;;;;;;;3.95;1.38;;;5.60;99.90;;;;;;5071851;28;20388;-67
2022/03/06 12:35:10;;;;;;;5.30;1.98;;;5.70;99.90;;;;;;5051989;28;20053;-67
2022/03/06 12:37:46;;;;;;;7.43;1.92;;;5.80;99.90;;;;;;5065966;28;20395;-68
2022/03/06 12:40:15;;;;;;;4.32;1.83;;;5.80;99.90;;;;;;5070460;28;20463;-68
2022/03/06 12:42:42;;;;;;;2.53;1.83;;;5.80;99.90;;;;;;5052458;28;20045;-67
2022/03/06 12:45:10;;;;;;;1.67;1.40;;;5.80;99.90;;;;;;5052066;28;20071;-67
2022/03/06 12:47:38;;;;;;;4.28;2.10;;;5.90;99.90;;;;;;5054929;28;20091;-67
2022/03/06 12:50:06;;;;;;;2.70;1.92;;;5.80;99.90;;;;;;5059245;28;20049;-67
2022/03/06 12:52:33;;;;;;;2.75;1.95;;;5.80;99.90;;;;;;5052559;28;20056;-67
2022/03/06 12:55:00;;;;;;;2.25;1.67;;;5.80;99.90;;;;;;5051809;28;20075;-67
2022/03/06 12:57:37;;;;;;;6.72;2.30;;;5.80;99.90;;;;;;5056264;28;20413;-67